createdAt,value
2022-09-20T00:04:49.798Z,10.45
2022-09-20T00:09:51.554Z,6.95
2022-09-20T00:14:53.189Z,8.52
2022-09-20T00:19:54.835Z,10.77
2022-09-20T00:24:56.619Z,8.02
2022-09-20T00:29:58.711Z,8.90
2022-09-20T00:35:10.797Z,10.38
2022-09-20T00:40:21.661Z,10.15
2022-09-20T00:45:29.500Z,10.10
2022-09-20T00:50:33.291Z,12.40
2022-09-20T00:55:38.728Z,11.48
2022-09-20T01:00:42.305Z,13.73
2022-09-20T01:05:45.548Z,7.85
2022-09-20T01:10:47.521Z,14.45
2022-09-20T01:15:50.708Z,10.02
2022-09-20T01:20:52.573Z,16.10
2022-09-20T01:26:15.305Z,13.77
2022-09-20T01:31:54.178Z,8.15
2022-09-20T01:37:11.612Z,16.17
2022-09-20T01:42:19.297Z,14.35
2022-09-20T01:47:49.157Z,10.23
2022-09-20T01:53:15.294Z,10.05
2022-09-20T01:59:12.858Z,13.73
2022-09-20T02:04:53.400Z,14.10
2022-09-20T02:10:00.826Z,14.23
2022-09-20T02:15:36.394Z,12.52
2022-09-20T02:20:56.135Z,9.68
2022-09-20T02:25:57.604Z,15.53
2022-09-20T02:31:21.022Z,7.95
2022-09-20T02:36:39.342Z,7.70
2022-09-20T02:42:27.017Z,14.05
2022-09-20T02:47:40.179Z,7.32
2022-09-20T02:53:11.046Z,5.93
2022-09-20T03:03:44.570Z,5.25
2022-09-20T03:09:18.299Z,9.68
2022-09-20T03:15:02.268Z,14.82
2022-09-20T03:20:27.449Z,12.48
2022-09-20T03:25:39.382Z,6.65
2022-09-20T03:30:56.945Z,14.15
2022-09-20T03:36:24.443Z,3.97
2022-09-20T03:41:54.055Z,10.02
2022-09-20T03:47:15.807Z,8.30
2022-09-20T03:52:31.166Z,10.48
2022-09-20T03:57:55.318Z,7.10
2022-09-20T04:03:24.210Z,7.03
2022-09-20T04:09:01.329Z,12.02
2022-09-20T04:14:23.641Z,9.93
2022-09-20T04:19:35.225Z,7.22
2022-09-20T04:24:48.733Z,8.68
2022-09-20T04:29:58.190Z,7.40
2022-09-20T04:35:24.315Z,6.03
2022-09-20T04:40:57.552Z,6.32
2022-09-20T04:46:46.350Z,10.65
2022-09-20T04:52:10.151Z,3.28
2022-09-20T04:57:17.696Z,12.57
2022-09-20T05:02:40.174Z,3.60
2022-09-20T05:08:18.309Z,10.52
2022-09-20T05:13:47.419Z,6.80
2022-09-20T05:19:04.082Z,8.63
2022-09-20T05:24:28.228Z,5.43
2022-09-20T05:29:56.916Z,4.85
2022-09-20T05:35:21.645Z,9.07
2022-09-20T05:40:23.207Z,5.50
2022-09-20T05:45:51.268Z,7.20
2022-09-20T05:51:08.824Z,7.88
2022-09-20T05:56:25.554Z,11.85
2022-09-20T06:01:32.407Z,7.40
2022-09-20T06:06:55.244Z,7.07
2022-09-20T06:11:56.684Z,8.25
2022-09-20T06:17:32.976Z,7.07
2022-09-20T06:22:42.772Z,13.75
2022-09-20T06:27:59.123Z,13.55
2022-09-20T06:33:00.636Z,14.80
2022-09-20T06:38:48.764Z,12.35
2022-09-20T06:43:58.566Z,7.15
2022-09-20T06:49:00.651Z,5.28
2022-09-20T06:54:03.447Z,8.00
2022-09-20T06:59:14.245Z,8.85
2022-09-20T07:04:15.787Z,16.95
2022-09-20T07:09:17.949Z,7.15
2022-09-20T07:14:19.922Z,9.93
2022-09-20T07:19:23.424Z,8.98
2022-09-20T07:24:24.998Z,6.75
2022-09-20T07:29:27.321Z,9.38
2022-09-20T07:34:29.467Z,8.50
2022-09-20T07:39:31.034Z,8.18
2022-09-20T07:44:32.614Z,7.10
2022-09-20T07:49:34.296Z,5.88
2022-09-20T07:54:43.763Z,5.40
2022-09-20T07:59:45.431Z,6.32
2022-09-20T08:04:49.975Z,7.22
2022-09-20T08:09:51.849Z,8.32
2022-09-20T08:14:53.725Z,6.88
2022-09-20T08:19:58.257Z,11.63
2022-09-20T08:25:00.301Z,5.05
2022-09-20T08:30:02.373Z,7.63
2022-09-20T08:35:04.313Z,5.30
2022-09-20T08:40:06.718Z,10.95
2022-09-20T08:45:33.919Z,5.85
2022-09-20T08:50:37.341Z,3.97
2022-09-20T08:55:41.901Z,5.10
2022-09-20T09:00:47.270Z,5.65
2022-09-20T09:05:52.810Z,4.30
2022-09-20T09:11:08.768Z,4.35
2022-09-20T09:16:21.991Z,6.13
2022-09-20T09:21:29.917Z,6.32
2022-09-20T09:26:40.289Z,6.03
2022-09-20T09:31:44.951Z,3.20
2022-09-20T09:36:47.023Z,5.90
2022-09-20T09:41:49.029Z,4.40
2022-09-20T09:46:53.837Z,8.05
2022-09-20T09:52:16.644Z,4.07
2022-09-20T09:57:48.625Z,2.83
2022-09-20T10:03:27.232Z,3.05
2022-09-20T10:08:56.554Z,7.47
2022-09-20T10:14:33.596Z,3.92
2022-09-20T10:19:50.940Z,7.88
2022-09-20T10:25:14.648Z,2.40
2022-09-20T10:30:20.563Z,5.20
2022-09-20T10:35:37.338Z,4.53
2022-09-20T10:41:16.618Z,6.30
2022-09-20T10:46:34.176Z,3.83
2022-09-20T10:52:03.127Z,7.70
2022-09-20T10:57:31.674Z,5.70
2022-09-20T11:02:50.126Z,1.52
2022-09-20T11:08:06.647Z,2.28
2022-09-20T11:13:27.143Z,5.88
2022-09-20T11:18:41.494Z,8.55
2022-09-20T11:24:01.911Z,7.43
2022-09-20T11:29:23.036Z,6.30
2022-09-20T11:34:37.412Z,2.72
2022-09-20T11:39:55.585Z,2.65
2022-09-20T11:44:57.458Z,4.55
2022-09-20T11:50:33.110Z,2.78
2022-09-20T11:55:51.472Z,2.88
2022-09-20T12:00:55.825Z,6.65
2022-09-20T12:12:46.970Z,4.03
2022-09-20T12:17:48.861Z,6.82
2022-09-20T12:22:50.814Z,2.90
2022-09-20T12:27:57.418Z,6.13
2022-09-20T12:33:02.735Z,4.20
2022-09-20T12:44:04.978Z,5.45
2022-09-20T12:49:47.790Z,3.95
2022-09-20T12:54:53.225Z,4.00
2022-09-20T13:00:01.224Z,3.05
2022-09-20T13:05:03.038Z,7.53
2022-09-20T13:10:23.637Z,4.93
2022-09-20T13:15:26.280Z,8.88
2022-09-20T13:20:34.503Z,3.70
2022-09-20T13:25:39.809Z,4.10
2022-09-20T13:30:41.901Z,7.10
2022-09-20T13:35:47.084Z,4.45
2022-09-20T13:40:50.892Z,7.47
2022-09-20T13:45:56.353Z,7.47
2022-09-20T13:50:58.650Z,4.43
2022-09-20T13:56:30.613Z,3.45
2022-09-20T14:01:35.074Z,8.52
2022-09-20T14:06:42.444Z,7.40
2022-09-20T14:11:45.558Z,4.10
2022-09-20T14:16:51.759Z,3.53
2022-09-20T14:22:05.128Z,4.05
2022-09-20T14:27:12.898Z,4.43
2022-09-20T14:32:17.448Z,7.63
2022-09-20T14:37:32.597Z,7.70
2022-09-20T14:42:43.777Z,4.43
2022-09-20T14:47:59.885Z,9.65
2022-09-20T14:53:03.649Z,5.82
2022-09-20T14:58:10.350Z,8.23
2022-09-20T15:03:15.907Z,5.13
2022-09-20T15:08:28.172Z,7.05
2022-09-20T15:13:30.152Z,5.78
2022-09-20T15:23:58.510Z,6.40
2022-09-20T15:29:05.858Z,7.50
2022-09-20T15:34:12.995Z,9.90
2022-09-20T15:39:24.728Z,10.50
2022-09-20T15:44:26.703Z,9.88
2022-09-20T15:49:31.070Z,9.65
2022-09-20T15:54:32.745Z,6.05
2022-09-20T15:59:36.353Z,8.60
2022-09-20T16:04:37.907Z,7.03
2022-09-20T16:09:39.430Z,8.27
2022-09-20T16:14:41.380Z,13.35
2022-09-20T16:19:46.324Z,9.40
2022-09-20T16:24:47.839Z,7.38
2022-09-20T16:29:49.783Z,10.98
2022-09-20T16:34:54.702Z,10.30
2022-09-20T16:39:57.547Z,6.85
2022-09-20T16:44:59.124Z,8.50
2022-09-20T16:50:01.400Z,6.88
2022-09-20T16:55:04.902Z,7.47
2022-09-20T17:00:07.129Z,5.35
2022-09-20T17:05:08.967Z,7.28
2022-09-20T17:10:11.361Z,8.57
2022-09-20T17:15:13.628Z,11.60
2022-09-20T17:20:15.308Z,21.48
2022-09-20T17:25:16.780Z,11.73
2022-09-20T17:30:18.701Z,12.18
2022-09-20T17:35:22.446Z,13.93
2022-09-20T17:40:24.041Z,11.57
2022-09-20T17:45:25.992Z,10.45
2022-09-20T17:50:27.576Z,10.60
2022-09-20T17:55:29.822Z,29.23
2022-09-20T18:00:31.596Z,35.92
2022-09-20T18:05:33.310Z,27.80
2022-09-20T18:10:34.891Z,21.08
2022-09-20T18:15:36.516Z,16.70
2022-09-20T18:20:37.982Z,14.98
2022-09-20T18:25:58.329Z,18.67
2022-09-20T18:36:31.547Z,32.13
2022-09-20T18:41:35.520Z,27.23
2022-09-20T18:46:38.088Z,21.27
2022-09-20T18:51:40.414Z,29.00
2022-09-20T18:56:47.253Z,25.33
2022-09-20T19:01:53.157Z,25.45
2022-09-20T19:07:23.098Z,26.40
2022-09-20T19:12:37.392Z,24.80
2022-09-20T19:17:56.442Z,33.92
2022-09-20T19:23:25.068Z,32.90
2022-09-20T19:28:26.993Z,25.55
2022-09-20T19:33:29.603Z,21.90
2022-09-20T19:44:04.358Z,21.95
2022-09-20T19:49:16.424Z,17.98
2022-09-20T19:54:18.684Z,16.80
2022-09-20T19:59:22.632Z,18.58
2022-09-20T20:04:24.459Z,20.88
2022-09-20T20:09:42.158Z,16.35
2022-09-20T20:15:18.748Z,21.48
2022-09-20T20:20:28.272Z,16.10
2022-09-20T20:26:00.040Z,15.60
2022-09-20T20:31:02.160Z,14.20
2022-09-20T20:36:06.617Z,11.60
2022-09-20T20:41:10.803Z,14.13
2022-09-20T20:46:14.806Z,12.60
2022-09-20T20:51:18.827Z,10.93
2022-09-20T20:56:29.904Z,9.60
2022-09-20T21:01:42.725Z,11.52
2022-09-20T21:06:44.986Z,11.63
2022-09-20T21:11:48.326Z,8.95
2022-09-20T21:16:51.639Z,10.85
2022-09-20T21:21:53.440Z,13.75
2022-09-20T21:26:54.975Z,10.55
2022-09-20T21:31:56.539Z,10.68
2022-09-20T21:36:58.312Z,12.23
2022-09-20T21:41:59.872Z,12.57
2022-09-20T21:47:01.432Z,13.35
2022-09-20T21:52:03.712Z,12.77
2022-09-20T21:57:06.060Z,9.30
2022-09-20T22:02:07.677Z,17.17
2022-09-20T22:07:09.931Z,14.50
2022-09-20T22:12:11.521Z,10.57
2022-09-20T22:17:13.229Z,9.60
2022-09-20T22:22:15.319Z,13.45
2022-09-20T22:27:16.837Z,14.95
2022-09-20T22:32:18.674Z,14.18
2022-09-20T22:37:20.349Z,11.82
2022-09-20T22:42:22.027Z,7.10
2022-09-20T22:47:23.683Z,8.20
2022-09-20T22:52:25.184Z,7.00
2022-09-20T22:57:27.067Z,6.60
2022-09-20T23:02:28.651Z,9.07
2022-09-20T23:07:31.293Z,9.25
2022-09-20T23:12:33.036Z,7.70
2022-09-20T23:17:34.587Z,6.82
2022-09-20T23:22:36.232Z,6.00
2022-09-20T23:27:37.918Z,5.85
2022-09-20T23:32:39.624Z,7.65
2022-09-20T23:37:41.188Z,10.88
2022-09-20T23:42:42.778Z,6.63
2022-09-20T23:47:47.503Z,7.15
2022-09-20T23:52:49.043Z,10.25
2022-09-20T23:57:57.649Z,13.10
